sensor_id;sensor_type;location;lat;lon;timestamp;pressure;altitude;pressure_sealevel;temperature;humidity
3590;BME280;1809;48.470;9.226;2023-04-15T00:01:28;-16269.03;;;3.59;100.00
3590;BME280;1809;48.470;9.226;2023-04-15T00:03:56;-16270.44;;;3.64;100.00
3590;BME280;1809;48.470;9.226;2023-04-15T00:06:22;-16269.44;;;3.60;100.00
3590;BME280;1809;48.470;9.226;2023-04-15T00:08:52;-16274.66;;;3.79;100.00
3590;BME280;1809;48.470;9.226;2023-04-15T00:11:17;-16275.22;;;3.81;100.00
3590;BME280;1809;48.470;9.226;2023-04-15T00:13:45;-16277.75;;;3.90;100.00
3590;BME280;1809;48.470;9.226;2023-04-15T00:16:11;-16278.75;;;3.94;100.00
3590;BME280;1809;48.470;9.226;2023-04-15T00:18:36;-16277.63;;;3.90;100.00
3590;BME280;1809;48.470;9.226;2023-04-15T00:21:03;-16277.06;;;3.88;100.00
3590;BME280;1809;48.470;9.226;2023-04-15T00:23:33;-16275.09;;;3.80;100.00
3590;BME280;1809;48.470;9.226;2023-04-15T00:26:00;-16272.69;;;3.72;100.00
3590;BME280;1809;48.470;9.226;2023-04-15T00:28:26;-16267.91;;;3.55;100.00
3590;BME280;1809;48.470;9.226;2023-04-15T00:30:52;-16266.50;;;3.50;100.00
3590;BME280;1809;48.470;9.226;2023-04-15T00:33:17;-16266.50;;;3.50;100.00
3590;BME280;1809;48.470;9.226;2023-04-15T00:35:46;-16264.81;;;3.44;100.00
3590;BME280;1809;48.470;9.226;2023-04-15T00:38:12;-16265.66;;;3.47;100.00
3590;BME280;1809;48.470;9.226;2023-04-15T00:40:38;-16265.66;;;3.47;100.00
3590;BME280;1809;48.470;9.226;2023-04-15T00:43:08;-16264.53;;;3.43;100.00
3590;BME280;1809;48.470;9.226;2023-04-15T00:45:33;-16260.56;;;3.29;100.00
3590;BME280;1809;48.470;9.226;2023-04-15T00:47:59;-16260.28;;;3.28;100.00
3590;BME280;1809;48.470;9.226;2023-04-15T00:50:25;-16258.03;;;3.19;100.00
3590;BME280;1809;48.470;9.226;2023-04-15T00:52:50;-16257.06;;;3.16;100.00
3590;BME280;1809;48.470;9.226;2023-04-15T00:55:17;-16258.75;;;3.22;100.00
3590;BME280;1809;48.470;9.226;2023-04-15T00:57:43;-16257.75;;;3.18;100.00
3590;BME280;1809;48.470;9.226;2023-04-15T01:00:09;-16258.88;;;3.22;100.00
3590;BME280;1809;48.470;9.226;2023-04-15T01:02:36;-16257.75;;;3.18;100.00
3590;BME280;1809;48.470;9.226;2023-04-15T01:05:03;-16256.78;;;3.15;100.00
3590;BME280;1809;48.470;9.226;2023-04-15T01:07:32;-16254.94;;;3.08;100.00
3590;BME280;1809;48.470;9.226;2023-04-15T01:09:58;-16253.53;;;3.03;100.00
3590;BME280;1809;48.470;9.226;2023-04-15T01:12:26;-13906.31;;;3.04;100.00
3590;BME280;1809;48.470;9.226;2023-04-15T01:14:55;-10795.16;;;2.96;100.00
3590;BME280;1809;48.470;9.226;2023-04-15T01:17:23;-7088.72;;;2.95;100.00
3590;BME280;1809;48.470;9.226;2023-04-15T01:19:51;-6759.25;;;2.82;100.00
3590;BME280;1809;48.470;9.226;2023-04-15T01:22:17;-3151.44;;;2.78;100.00
3590;BME280;1809;48.470;9.226;2023-04-15T01:24:50;131.38;;;2.71;100.00
3590;BME280;1809;48.470;9.226;2023-04-15T01:27:20;5061.41;;;2.75;100.00
3590;BME280;1809;48.470;9.226;2023-04-15T01:29:46;7364.19;;;2.70;100.00
3590;BME280;1809;48.470;9.226;2023-04-15T01:32:12;11646.91;;;2.78;100.00
3590;BME280;1809;48.470;9.226;2023-04-15T01:34:38;11974.69;;;2.68;100.00
3590;BME280;1809;48.470;9.226;2023-04-15T01:37:04;13621.28;;;2.60;100.00
3590;BME280;1809;48.470;9.226;2023-04-15T01:39:32;16259.75;;;2.59;100.00
3590;BME280;1809;48.470;9.226;2023-04-15T01:41:58;17909.22;;;2.57;100.00
3590;BME280;1809;48.470;9.226;2023-04-15T01:44:28;19557.69;;;2.49;100.00
3590;BME280;1809;48.470;9.226;2023-04-15T01:46:53;20545.94;;;2.41;100.00
3590;BME280;1809;48.470;9.226;2023-04-15T01:51:51;27161.75;;;2.49;100.00
3590;BME280;1809;48.470;9.226;2023-04-15T01:54:16;29816.19;;;2.61;100.00
3590;BME280;1809;48.470;9.226;2023-04-15T01:56:41;29817.38;;;2.63;100.00
3590;BME280;1809;48.470;9.226;2023-04-15T01:59:07;29487.72;;;2.67;100.00
3590;BME280;1809;48.470;9.226;2023-04-15T02:01:32;27827.59;;;2.58;100.00
3590;BME280;1809;48.470;9.226;2023-04-15T02:03:58;26831.00;;;2.50;100.00
3590;BME280;1809;48.470;9.226;2023-04-15T02:06:23;26828.88;;;2.45;100.00
3590;BME280;1809;48.470;9.226;2023-04-15T02:08:48;27821.13;;;2.43;100.00
3590;BME280;1809;48.470;9.226;2023-04-15T02:11:14;29145.69;;;2.44;100.00
3590;BME280;1809;48.470;9.226;2023-04-15T02:13:39;29474.28;;;2.38;100.00
3590;BME280;1809;48.470;9.226;2023-04-15T02:16:17;31791.88;;;2.36;100.00
3590;BME280;1809;48.470;9.226;2023-04-15T02:18:44;34114.19;;;2.39;100.00
3590;BME280;1809;48.470;9.226;2023-04-15T02:21:10;34439.72;;;2.28;100.00
3590;BME280;1809;48.470;9.226;2023-04-15T02:23:36;35099.00;;;2.21;100.00
3590;BME280;1809;48.470;9.226;2023-04-15T02:26:01;37755.72;;;2.26;100.00
3590;BME280;1809;48.470;9.226;2023-04-15T02:28:26;38746.59;;;2.17;100.00
3590;BME280;1809;48.470;9.226;2023-04-15T02:30:52;39736.84;;;2.08;100.00
3590;BME280;1809;48.470;9.226;2023-04-15T02:33:19;40728.72;;;2.02;100.00
3590;BME280;1809;48.470;9.226;2023-04-15T02:35:45;42386.75;;;1.98;100.00
3590;BME280;1809;48.470;9.226;2023-04-15T02:38:11;43380.34;;;1.93;100.00
3590;BME280;1809;48.470;9.226;2023-04-15T02:40:36;45044.38;;;1.96;100.00
3590;BME280;1809;48.470;9.226;2023-04-15T02:43:02;47378.63;;;2.04;100.00
3590;BME280;1809;48.470;9.226;2023-04-15T02:45:27;48041.03;;;2.00;100.00
3590;BME280;1809;48.470;9.226;2023-04-15T02:47:53;48034.81;;;1.92;100.00
3590;BME280;1809;48.470;9.226;2023-04-15T02:50:19;48029.72;;;1.86;100.00
3590;BME280;1809;48.470;9.226;2023-04-15T02:52:44;48692.44;;;1.82;100.00
3590;BME280;1809;48.470;9.226;2023-04-15T02:55:10;49354.78;;;1.78;100.00
3590;BME280;1809;48.470;9.226;2023-04-15T02:57:35;52695.06;;;1.91;100.00
3590;BME280;1809;48.470;9.226;2023-04-15T03:00:03;54364.53;;;1.94;100.00
3590;BME280;1809;48.470;9.226;2023-04-15T03:02:36;56041.91;;;2.05;100.00
3590;BME280;1809;48.470;9.226;2023-04-15T03:05:02;57046.56;;;2.09;100.00
3590;BME280;1809;48.470;9.226;2023-04-15T03:07:27;57044.69;;;2.07;100.00
3590;BME280;1809;48.470;9.226;2023-04-15T03:09:52;57045.63;;;2.08;100.00
3590;BME280;1809;48.470;9.226;2023-04-15T03:12:18;57042.84;;;2.05;100.00
3590;BME280;1809;48.470;9.226;2023-04-15T03:14:43;57715.00;;;2.10;100.00
3590;BME280;1809;48.470;9.226;2023-04-15T03:17:08;58045.00;;;2.06;100.00
3590;BME280;1809;48.470;9.226;2023-04-15T03:19:34;58385.50;;;2.13;100.00
3590;BME280;1809;48.470;9.226;2023-04-15T03:21:59;57046.09;;;2.09;100.00
3590;BME280;1809;48.470;9.226;2023-04-15T03:24:24;56041.91;;;2.05;100.00
3590;BME280;1809;48.470;9.226;2023-04-15T03:26:50;55376.56;;;2.07;100.00
3590;BME280;1809;48.470;9.226;2023-04-15T03:29:15;55046.63;;;2.11;100.00
3590;BME280;1809;48.470;9.226;2023-04-15T03:31:41;54717.56;;;2.16;100.00
3590;BME280;1809;48.470;9.226;2023-04-15T03:34:06;53709.69;;;2.08;100.00
3590;BME280;1809;48.470;9.226;2023-04-15T03:36:31;54373.41;;;2.04;100.00
3590;BME280;1809;48.470;9.226;2023-04-15T03:38:57;56046.47;;;2.10;100.00
3590;BME280;1809;48.470;9.226;2023-04-15T03:41:23;56712.84;;;2.09;100.00
3590;BME280;1809;48.470;9.226;2023-04-15T03:43:48;56045.06;;;2.09;100.00
3590;BME280;1809;48.470;9.226;2023-04-15T03:46:16;55380.19;;;2.11;100.00
3590;BME280;1809;48.470;9.226;2023-04-15T03:48:41;54040.88;;;2.05;100.00
3590;BME280;1809;48.470;9.226;2023-04-15T03:51:07;53370.66;;;2.01;100.00
3590;BME280;1809;48.470;9.226;2023-04-15T03:53:32;52698.94;;;1.95;100.00
3590;BME280;1809;48.470;9.226;2023-04-15T03:55:57;52355.53;;;1.83;100.00
3590;BME280;1809;48.470;9.226;2023-04-15T03:58:23;52682.22;;;1.76;100.00
3590;BME280;1809;48.470;9.226;2023-04-15T04:00:48;54016.22;;;1.77;100.00
3590;BME280;1809;48.470;9.226;2023-04-15T04:03:13;56012.63;;;1.73;100.00
3590;BME280;1809;48.470;9.226;2023-04-15T04:05:38;57679.69;;;1.73;100.00
3590;BME280;1809;48.470;9.226;2023-04-15T04:08:05;58678.19;;;1.70;100.00
3590;BME280;1809;48.470;9.226;2023-04-15T04:10:31;60351.84;;;1.75;100.00
3590;BME280;1809;48.470;9.226;2023-04-15T04:12:56;61014.66;;;1.70;100.00
3590;BME280;1809;48.470;9.226;2023-04-15T04:15:22;62014.47;;;1.68;100.00
3590;BME280;1809;48.470;9.226;2023-04-15T04:17:47;63353.75;;;1.71;100.00
3590;BME280;1809;48.470;9.226;2023-04-15T04:20:13;64358.41;;;1.73;100.00
3590;BME280;1809;48.470;9.226;2023-04-15T04:22:38;65025.88;;;1.72;100.00
3590;BME280;1809;48.470;9.226;2023-04-15T04:25:05;65358.59;;;1.71;100.00
3590;BME280;1809;48.470;9.226;2023-04-15T04:27:32;65350.56;;;1.63;100.00
3590;BME280;1809;48.470;9.226;2023-04-15T04:29:58;66363.88;;;1.73;100.00
3590;BME280;1809;48.470;9.226;2023-04-15T04:32:23;66020.28;;;1.64;100.00
3590;BME280;1809;48.470;9.226;2023-04-15T04:34:48;66691.22;;;1.66;100.00
3590;BME280;1809;48.470;9.226;2023-04-15T04:37:14;67031.19;;;1.71;100.00
3590;BME280;1809;48.470;9.226;2023-04-15T04:39:39;66692.34;;;1.67;100.00
3590;BME280;1809;48.470;9.226;2023-04-15T04:42:05;67028.97;;;1.69;100.00
3590;BME280;1809;48.470;9.226;2023-04-15T04:44:30;67027.88;;;1.68;100.00
3590;BME280;1809;48.470;9.226;2023-04-15T04:46:55;67024.03;;;1.65;100.00
3590;BME280;1809;48.470;9.226;2023-04-15T04:49:21;67696.91;;;1.68;100.00
3590;BME280;1809;48.470;9.226;2023-04-15T04:51:46;67370.09;;;1.75;100.00
3590;BME280;1809;48.470;9.226;2023-04-15T04:54:15;67042.16;;;1.81;100.00
3590;BME280;1809;48.470;9.226;2023-04-15T04:56:44;65711.22;;;1.88;100.00
3590;BME280;1809;48.470;9.226;2023-04-15T04:59:10;63373.44;;;1.90;100.00
3590;BME280;1809;48.470;9.226;2023-04-15T05:01:39;61370.63;;;1.92;100.00
3590;BME280;1809;48.470;9.226;2023-04-15T05:04:05;59031.13;;;1.90;100.00
3590;BME280;1809;48.470;9.226;2023-04-15T05:06:34;56694.34;;;1.89;100.00
3590;BME280;1809;48.470;9.226;2023-04-15T05:09:01;55028.66;;;1.91;100.00
3590;BME280;1809;48.470;9.226;2023-04-15T05:11:28;54703.28;;;2.00;100.00
3590;BME280;1809;48.470;9.226;2023-04-15T05:13:54;54375.19;;;2.06;100.00
3590;BME280;1809;48.470;9.226;2023-04-15T05:16:19;54046.16;;;2.11;100.00
3590;BME280;1809;48.470;9.226;2023-04-15T05:18:46;54722.47;;;2.22;100.00
3590;BME280;1809;48.470;9.226;2023-04-15T05:21:16;54404.00;;;2.39;100.00
3590;BME280;1809;48.470;9.226;2023-04-15T05:23:45;52745.31;;;2.50;100.00
3590;BME280;1809;48.470;9.226;2023-04-15T05:26:13;49096.97;;;2.73;100.00
3590;BME280;1809;48.470;9.226;2023-04-15T05:28:41;43440.16;;;2.79;100.00
3590;BME280;1809;48.470;9.226;2023-04-15T05:31:07;39796.59;;;3.02;100.00
3590;BME280;1809;48.470;9.226;2023-04-15T05:33:33;28517.16;;;3.18;100.00
3590;BME280;1809;48.470;9.226;2023-04-15T05:35:59;26224.03;;;3.83;100.00
3590;BME280;1809;48.470;9.226;2023-04-15T05:38:25;-13147.91;;;4.54;100.00
3590;BME280;1809;48.470;9.226;2023-04-15T05:40:51;-16304.50;;;4.86;100.00
3590;BME280;1809;48.470;9.226;2023-04-15T05:43:17;-16322.53;;;5.51;100.00
3590;BME280;1809;48.470;9.226;2023-04-15T05:45:43;-16344.47;;;6.29;100.00
3590;BME280;1809;48.470;9.226;2023-04-15T05:48:09;-16380.75;;;7.60;100.00
3590;BME280;1809;48.470;9.226;2023-04-15T05:50:35;-16420.97;;;9.04;100.00
3590;BME280;1809;48.470;9.226;2023-04-15T05:53:01;-16442.88;;;9.83;100.00
3590;BME280;1809;48.470;9.226;2023-04-15T05:55:29;-16473.22;;;10.92;100.00
3590;BME280;1809;48.470;9.226;2023-04-15T05:57:55;-16504.69;;;12.05;100.00
3590;BME280;1809;48.470;9.226;2023-04-15T06:00:27;-16500.75;;;11.91;100.00
3590;BME280;1809;48.470;9.226;2023-04-15T06:02:56;-16515.91;;;12.45;100.00
3590;BME280;1809;48.470;9.226;2023-04-15T06:05:23;-16502.56;;;11.97;100.00
3590;BME280;1809;48.470;9.226;2023-04-15T06:07:54;-16482.91;;;11.26;100.00
3590;BME280;1809;48.470;9.226;2023-04-15T06:10:23;-16442.88;;;9.83;100.00
3590;BME280;1809;48.470;9.226;2023-04-15T06:12:49;-16429.69;;;9.35;100.00
3590;BME280;1809;48.470;9.226;2023-04-15T06:15:15;-16411.97;;;8.72;100.00
3590;BME280;1809;48.470;9.226;2023-04-15T06:17:44;-16406.91;;;8.53;100.00
3590;BME280;1809;48.470;9.226;2023-04-15T06:20:11;-16393.13;;;8.04;100.00
3590;BME280;1809;48.470;9.226;2023-04-15T06:22:37;-16385.97;;;7.78;100.00
3590;BME280;1809;48.470;9.226;2023-04-15T06:25:14;-16385.25;;;7.76;100.00
3590;BME280;1809;48.470;9.226;2023-04-15T06:27:40;-16393.13;;;8.04;100.00
3590;BME280;1809;48.470;9.226;2023-04-15T06:30:09;-16405.09;;;8.47;100.00
3590;BME280;1809;48.470;9.226;2023-04-15T06:32:35;-16400.16;;;8.29;100.00
3590;BME280;1809;48.470;9.226;2023-04-15T06:35:01;-16411.84;;;8.71;100.00
3590;BME280;1809;48.470;9.226;2023-04-15T06:37:30;-16412.53;;;8.74;100.00
3590;BME280;1809;48.470;9.226;2023-04-15T06:40:13;-16419.28;;;8.98;100.00
3590;BME280;1809;48.470;9.226;2023-04-15T06:42:39;-16411.41;;;8.70;100.00
3590;BME280;1809;48.470;9.226;2023-04-15T06:45:06;-16407.75;;;8.56;100.00
3590;BME280;1809;48.470;9.226;2023-04-15T06:47:35;-16409.88;;;8.64;100.00
3590;BME280;1809;48.470;9.226;2023-04-15T06:50:01;-16415.63;;;8.85;100.00
3590;BME280;1809;48.470;9.226;2023-04-15T06:52:30;-16424.63;;;9.17;100.00
3590;BME280;1809;48.470;9.226;2023-04-15T06:54:56;-16434.19;;;9.51;100.00
3590;BME280;1809;48.470;9.226;2023-04-15T06:57:24;-16432.22;;;9.44;100.00
3590;BME280;1809;48.470;9.226;2023-04-15T06:59:50;-16424.34;;;9.16;100.00
3590;BME280;1809;48.470;9.226;2023-04-15T07:02:17;-16426.88;;;9.25;100.00
3590;BME280;1809;48.470;9.226;2023-04-15T07:04:42;-16420.41;;;9.02;100.00
3590;BME280;1809;48.470;9.226;2023-04-15T07:07:08;-16415.75;;;8.85;100.00
3590;BME280;1809;48.470;9.226;2023-04-15T07:09:34;-16412.81;;;8.75;100.00
3590;BME280;1809;48.470;9.226;2023-04-15T07:12:00;-16412.13;;;8.72;100.00
3590;BME280;1809;48.470;9.226;2023-04-15T07:14:25;-16419.00;;;8.97;100.00
3590;BME280;1809;48.470;9.226;2023-04-15T07:16:52;-16412.53;;;8.74;100.00
3590;BME280;1809;48.470;9.226;2023-04-15T07:19:18;-16401.00;;;8.32;100.00
3590;BME280;1809;48.470;9.226;2023-04-15T07:21:43;-16409.59;;;8.63;100.00
3590;BME280;1809;48.470;9.226;2023-04-15T07:24:15;-16417.03;;;8.90;100.00
3590;BME280;1809;48.470;9.226;2023-04-15T07:26:45;-16418.44;;;8.95;100.00
3590;BME280;1809;48.470;9.226;2023-04-15T07:29:11;-16403.25;;;8.40;100.00
3590;BME280;1809;48.470;9.226;2023-04-15T07:31:39;-16424.06;;;9.15;100.00
3590;BME280;1809;48.470;9.226;2023-04-15T07:34:06;-16409.44;;;8.62;100.00
3590;BME280;1809;48.470;9.226;2023-04-15T07:36:35;-16426.31;;;9.23;100.00
3590;BME280;1809;48.470;9.226;2023-04-15T07:39:01;-16426.03;;;9.22;100.00
3590;BME280;1809;48.470;9.226;2023-04-15T07:41:28;-16425.75;;;9.21;100.00
3590;BME280;1809;48.470;9.226;2023-04-15T07:43:55;-16424.63;;;9.17;100.00
3590;BME280;1809;48.470;9.226;2023-04-15T07:46:20;-16435.31;;;9.55;100.00
3590;BME280;1809;48.470;9.226;2023-04-15T07:48:52;-16433.91;;;9.50;100.00
3590;BME280;1809;48.470;9.226;2023-04-15T07:51:19;-16440.91;;;9.76;100.00
3590;BME280;1809;48.470;9.226;2023-04-15T07:53:46;-16435.88;;;9.57;100.00
3590;BME280;1809;48.470;9.226;2023-04-15T07:56:12;-16447.94;;;10.01;100.00
3590;BME280;1809;48.470;9.226;2023-04-15T07:58:38;-16453.00;;;10.19;100.00
3590;BME280;1809;48.470;9.226;2023-04-15T08:01:04;-16460.88;;;10.47;100.00
3590;BME280;1809;48.470;9.226;2023-04-15T08:03:29;-16459.47;;;10.42;100.00
3590;BME280;1809;48.470;9.226;2023-04-15T08:05:56;-16465.38;;;10.63;100.00
3590;BME280;1809;48.470;9.226;2023-04-15T08:08:24;-16471.81;;;10.87;100.00
3590;BME280;1809;48.470;9.226;2023-04-15T08:10:53;-16478.00;;;11.09;100.00
3590;BME280;1809;48.470;9.226;2023-04-15T08:13:19;-16471.69;;;10.86;100.00
3590;BME280;1809;48.470;9.226;2023-04-15T08:15:45;-16483.06;;;11.27;100.00
3590;BME280;1809;48.470;9.226;2023-04-15T08:18:11;-16481.94;;;11.23;100.00
3590;BME280;1809;48.470;9.226;2023-04-15T08:20:36;-16492.47;;;11.61;100.00
3590;BME280;1809;48.470;9.226;2023-04-15T08:23:05;-16496.81;;;11.76;100.00
3590;BME280;1809;48.470;9.226;2023-04-15T08:25:31;-16507.78;;;12.16;100.00
3590;BME280;1809;48.470;9.226;2023-04-15T08:27:57;-16520.25;;;12.61;100.00
3590;BME280;1809;48.470;9.226;2023-04-15T08:30:23;-16527.69;;;12.87;100.00
3590;BME280;1809;48.470;9.226;2023-04-15T08:32:49;-16522.91;;;12.70;100.00
3590;BME280;1809;48.470;9.226;2023-04-15T08:35:15;-16528.81;;;12.91;100.00
3590;BME280;1809;48.470;9.226;2023-04-15T08:37:41;-16535.56;;;13.16;100.00
3590;BME280;1809;48.470;9.226;2023-04-15T08:40:07;-16522.38;;;12.68;100.00
3590;BME280;1809;48.470;9.226;2023-04-15T08:42:41;-16530.22;;;12.97;100.00
3590;BME280;1809;48.470;9.226;2023-04-15T08:45:09;-16537.66;;;13.23;100.00
3590;BME280;1809;48.470;9.226;2023-04-15T08:47:37;-16541.72;;;13.38;100.00
3590;BME280;1809;48.470;9.226;2023-04-15T08:50:08;-16532.88;;;13.06;100.00
3590;BME280;1809;48.470;9.226;2023-04-15T08:52:34;-16529.09;;;12.92;100.00
3590;BME280;1809;48.470;9.226;2023-04-15T08:55:01;-16537.81;;;13.24;100.00
3590;BME280;1809;48.470;9.226;2023-04-15T08:57:28;-16543.13;;;13.43;100.00
3590;BME280;1809;48.470;9.226;2023-04-15T08:59:57;-16551.81;;;13.74;100.00
3590;BME280;1809;48.470;9.226;2023-04-15T09:02:24;-16551.00;;;13.71;100.00
3590;BME280;1809;48.470;9.226;2023-04-15T09:04:54;-16550.84;;;13.71;100.00
3590;BME280;1809;48.470;9.226;2023-04-15T09:07:22;-16542.44;;;13.40;100.00
3590;BME280;1809;48.470;9.226;2023-04-15T09:09:50;-16539.75;;;13.31;100.00
3590;BME280;1809;48.470;9.226;2023-04-15T09:12:16;-16547.63;;;13.59;100.00
3590;BME280;1809;48.470;9.226;2023-04-15T09:14:45;-16558.56;;;13.98;100.00
3590;BME280;1809;48.470;9.226;2023-04-15T09:17:11;-16569.22;;;14.37;100.00
3590;BME280;1809;48.470;9.226;2023-04-15T09:19:37;-16564.44;;;14.20;100.00
3590;BME280;1809;48.470;9.226;2023-04-15T09:22:05;-16573.97;;;14.54;100.00
3590;BME280;1809;48.470;9.226;2023-04-15T09:24:39;-16576.38;;;14.63;100.00
3590;BME280;1809;48.470;9.226;2023-04-15T09:27:09;-16575.66;;;14.60;100.00
3590;BME280;1809;48.470;9.226;2023-04-15T09:29:38;-16576.38;;;14.63;100.00
3590;BME280;1809;48.470;9.226;2023-04-15T09:32:09;-16576.50;;;14.63;100.00
3590;BME280;1809;48.470;9.226;2023-04-15T09:34:35;-16573.44;;;14.52;100.00
3590;BME280;1809;48.470;9.226;2023-04-15T09:37:02;-16575.38;;;14.59;100.00
3590;BME280;1809;48.470;9.226;2023-04-15T09:39:47;-16579.31;;;14.73;100.00
3590;BME280;1809;48.470;9.226;2023-04-15T09:42:14;-16583.81;;;14.89;100.00
3590;BME280;1809;48.470;9.226;2023-04-15T09:44:42;-16586.03;;;14.97;100.00
3590;BME280;1809;48.470;9.226;2023-04-15T09:47:08;-16574.28;;;14.55;100.00
3590;BME280;1809;48.470;9.226;2023-04-15T09:49:34;-16577.91;;;14.68;100.00
3590;BME280;1809;48.470;9.226;2023-04-15T09:52:00;-16582.97;;;14.86;100.00
3590;BME280;1809;48.470;9.226;2023-04-15T09:54:34;-16578.47;;;14.70;100.00
3590;BME280;1809;48.470;9.226;2023-04-15T09:57:07;-16572.88;;;14.50;100.00
3590;BME280;1809;48.470;9.226;2023-04-15T09:59:34;-16561.66;;;14.10;100.00
3590;BME280;1809;48.470;9.226;2023-04-15T10:02:05;-16582.13;;;14.83;100.00
3590;BME280;1809;48.470;9.226;2023-04-15T10:04:34;-16597.81;;;15.40;100.00
3590;BME280;1809;48.470;9.226;2023-04-15T10:07:07;-16595.16;;;15.30;94.04
3590;BME280;1809;48.470;9.226;2023-04-15T10:09:35;-16595.84;;;15.33;89.61
3590;BME280;1809;48.470;9.226;2023-04-15T10:12:03;-16594.88;;;15.29;86.33
3590;BME280;1809;48.470;9.226;2023-04-15T10:14:34;-16584.34;;;14.91;94.44
3590;BME280;1809;48.470;9.226;2023-04-15T10:17:01;-16602.03;;;15.55;91.32
3590;BME280;1809;48.470;9.226;2023-04-15T10:19:30;-16606.09;;;15.70;90.46
3590;BME280;1809;48.470;9.226;2023-04-15T10:21:58;-16609.03;;;15.80;93.10
3590;BME280;1809;48.470;9.226;2023-04-15T10:24:32;-16611.28;;;15.88;90.37
3590;BME280;1809;48.470;9.226;2023-04-15T10:26:59;-16600.63;;;15.50;95.84
3590;BME280;1809;48.470;9.226;2023-04-15T10:29:25;-16619.97;;;16.20;94.29
3590;BME280;1809;48.470;9.226;2023-04-15T10:31:56;-16622.34;;;16.28;90.12
3590;BME280;1809;48.470;9.226;2023-04-15T10:34:24;-16612.94;;;15.94;94.12
3590;BME280;1809;48.470;9.226;2023-04-15T10:36:54;-16617.28;;;16.10;90.37
3590;BME280;1809;48.470;9.226;2023-04-15T10:42:12;-16634.38;;;16.72;83.03
3590;BME280;1809;48.470;9.226;2023-04-15T10:44:48;-16635.66;;;16.76;83.37
3590;BME280;1809;48.470;9.226;2023-04-15T10:47:18;-16616.88;;;16.08;88.27
3590;BME280;1809;48.470;9.226;2023-04-15T10:49:49;-16614.78;;;16.01;91.93
3590;BME280;1809;48.470;9.226;2023-04-15T10:52:20;-16613.66;;;15.97;88.99
3590;BME280;1809;48.470;9.226;2023-04-15T10:55:01;-16602.88;;;15.58;100.00
3590;BME280;1809;48.470;9.226;2023-04-15T10:57:34;-16592.06;;;15.19;100.00
3590;BME280;1809;48.470;9.226;2023-04-15T11:00:11;-16579.31;;;14.73;100.00
3590;BME280;1809;48.470;9.226;2023-04-15T11:02:55;-16570.47;;;14.41;100.00
3590;BME280;1809;48.470;9.226;2023-04-15T11:08:06;-16557.72;;;13.95;100.00
3590;BME280;1809;48.470;9.226;2023-04-15T11:12:59;-16557.44;;;13.94;100.00
3590;BME280;1809;48.470;9.226;2023-04-15T11:18:08;-16557.72;;;13.95;100.00
3590;BME280;1809;48.470;9.226;2023-04-15T11:20:38;-16557.72;;;13.95;100.00
3590;BME280;1809;48.470;9.226;2023-04-15T11:23:05;-16558.00;;;13.96;100.00
3590;BME280;1809;48.470;9.226;2023-04-15T11:25:33;-16569.50;;;14.38;100.00
3590;BME280;1809;48.470;9.226;2023-04-15T11:28:00;-16568.66;;;14.35;100.00
3590;BME280;1809;48.470;9.226;2023-04-15T11:30:28;-16570.34;;;14.41;100.00
3590;BME280;1809;48.470;9.226;2023-04-15T11:32:57;-16581.56;;;14.81;100.00
3590;BME280;1809;48.470;9.226;2023-04-15T11:35:22;-16593.34;;;15.24;100.00
3590;BME280;1809;48.470;9.226;2023-04-15T11:37:48;-16603.72;;;15.61;96.78
3590;BME280;1809;48.470;9.226;2023-04-15T11:40:14;-16613.66;;;15.97;90.33
3590;BME280;1809;48.470;9.226;2023-04-15T11:42:42;-16612.25;;;15.92;90.27
3590;BME280;1809;48.470;9.226;2023-04-15T11:45:13;-16599.22;;;15.45;96.88
3590;BME280;1809;48.470;9.226;2023-04-15T11:47:39;-16602.31;;;15.56;92.86
3590;BME280;1809;48.470;9.226;2023-04-15T11:50:18;-16603.84;;;15.62;94.73
3590;BME280;1809;48.470;9.226;2023-04-15T11:52:57;-16594.44;;;15.28;91.42
3590;BME280;1809;48.470;9.226;2023-04-15T11:55:24;-16588.28;;;15.05;94.77
3590;BME280;1809;48.470;9.226;2023-04-15T11:57:51;-16600.06;;;15.48;94.59
3590;BME280;1809;48.470;9.226;2023-04-15T12:00:29;-16595.56;;;15.32;95.66
3590;BME280;1809;48.470;9.226;2023-04-15T12:13:53;-16580.72;;;14.78;90.90
3590;BME280;1809;48.470;9.226;2023-04-15T12:16:18;-16581.00;;;14.79;90.66
3590;BME280;1809;48.470;9.226;2023-04-15T12:18:45;-16564.03;;;14.18;97.05
3590;BME280;1809;48.470;9.226;2023-04-15T12:21:11;-16577.34;;;14.66;94.12
3590;BME280;1809;48.470;9.226;2023-04-15T12:23:37;-16584.34;;;14.91;97.43
3590;BME280;1809;48.470;9.226;2023-04-15T12:26:06;-16592.06;;;15.19;88.05
3590;BME280;1809;48.470;9.226;2023-04-15T12:28:35;-16588.84;;;15.07;87.00
3590;BME280;1809;48.470;9.226;2023-04-15T12:31:06;-16587.44;;;15.02;85.85
3590;BME280;1809;48.470;9.226;2023-04-15T12:33:33;-16593.88;;;15.26;86.45
3590;BME280;1809;48.470;9.226;2023-04-15T12:35:58;-16594.31;;;15.27;83.75
3590;BME280;1809;48.470;9.226;2023-04-15T12:38:24;-16597.81;;;15.40;85.51
3590;BME280;1809;48.470;9.226;2023-04-15T12:40:49;-16595.28;;;15.31;80.67
3590;BME280;1809;48.470;9.226;2023-04-15T12:43:15;-16594.16;;;15.27;77.79
3590;BME280;1809;48.470;9.226;2023-04-15T12:45:41;-16608.06;;;15.77;78.56
3590;BME280;1809;48.470;9.226;2023-04-15T12:48:06;-16606.50;;;15.71;81.78
3590;BME280;1809;48.470;9.226;2023-04-15T12:50:33;-16603.72;;;15.61;83.20
3590;BME280;1809;48.470;9.226;2023-04-15T12:52:59;-16598.09;;;15.41;85.71
3590;BME280;1809;48.470;9.226;2023-04-15T12:55:24;-16599.50;;;15.46;89.38
3590;BME280;1809;48.470;9.226;2023-04-15T12:57:50;-16603.72;;;15.61;83.69
3590;BME280;1809;48.470;9.226;2023-04-15T13:00:15;-16602.03;;;15.55;81.60
3590;BME280;1809;48.470;9.226;2023-04-15T13:02:42;-16598.78;;;15.43;82.09
3590;BME280;1809;48.470;9.226;2023-04-15T13:05:08;-16592.63;;;15.21;87.93
3590;BME280;1809;48.470;9.226;2023-04-15T13:07:33;-16599.78;;;15.47;87.76
3590;BME280;1809;48.470;9.226;2023-04-15T13:09:58;-16603.72;;;15.61;83.78
3590;BME280;1809;48.470;9.226;2023-04-15T13:12:26;-16600.63;;;15.50;84.56
3590;BME280;1809;48.470;9.226;2023-04-15T13:14:51;-16603.72;;;15.61;80.11
3590;BME280;1809;48.470;9.226;2023-04-15T13:17:17;-16590.25;;;15.13;76.29
3590;BME280;1809;48.470;9.226;2023-04-15T13:19:44;-16590.53;;;15.14;77.84
3590;BME280;1809;48.470;9.226;2023-04-15T13:22:09;-16586.31;;;14.98;100.00
3590;BME280;1809;48.470;9.226;2023-04-15T13:24:35;-16587.59;;;15.03;100.00
3590;BME280;1809;48.470;9.226;2023-04-15T13:27:01;-16583.25;;;14.87;100.00
3590;BME280;1809;48.470;9.226;2023-04-15T13:29:28;-16564.44;;;14.20;100.00
3590;BME280;1809;48.470;9.226;2023-04-15T13:31:54;-16551.69;;;13.74;100.00
3590;BME280;1809;48.470;9.226;2023-04-15T13:34:19;-16531.63;;;13.02;100.00
3590;BME280;1809;48.470;9.226;2023-04-15T13:36:44;-16532.75;;;13.06;100.00